createdAt,value
2019-05-23T00:02:07.765Z,99.90
2019-05-23T00:05:13.518Z,99.90
2019-05-23T00:08:15.481Z,99.90
2019-05-23T00:11:35.580Z,99.90
2019-05-23T00:14:43.322Z,99.90
2019-05-23T00:17:45.726Z,99.90
2019-05-23T00:20:46.559Z,99.90
2019-05-23T00:23:47.462Z,99.90
2019-05-23T00:26:48.509Z,99.90
2019-05-23T00:29:49.262Z,99.90
2019-05-23T00:32:53.462Z,99.90
2019-05-23T00:35:54.998Z,99.90
2019-05-23T00:38:56.692Z,99.90
2019-05-23T00:41:57.727Z,99.90
2019-05-23T00:44:58.958Z,99.90
2019-05-23T00:48:00.177Z,99.90
2019-05-23T00:51:04.987Z,99.90
2019-05-23T00:54:05.077Z,99.90
2019-05-23T00:57:07.496Z,99.90
2019-05-23T01:00:08.868Z,99.90
2019-05-23T01:03:11.311Z,99.90
2019-05-23T01:06:13.617Z,99.90
2019-05-23T01:09:15.918Z,99.90
2019-05-23T01:12:16.582Z,99.90
2019-05-23T01:15:17.315Z,99.90
2019-05-23T01:18:18.010Z,99.90
2019-05-23T01:21:37.845Z,99.90
2019-05-23T01:27:55.075Z,99.90
2019-05-23T01:30:58.376Z,99.90
2019-05-23T01:33:59.773Z,99.90
2019-05-23T01:37:00.637Z,99.90
2019-05-23T01:40:01.955Z,99.90
2019-05-23T01:43:04.342Z,99.90
2019-05-23T01:46:05.413Z,99.90
2019-05-23T01:49:06.767Z,99.90
2019-05-23T01:52:08.758Z,99.90
2019-05-23T01:55:10.350Z,99.90
2019-05-23T01:58:11.088Z,99.90
2019-05-23T02:01:12.566Z,99.90
2019-05-23T02:04:13.678Z,99.90
2019-05-23T02:07:14.422Z,99.90
2019-05-23T02:10:15.633Z,99.90
2019-05-23T02:13:16.417Z,99.90
2019-05-23T02:16:18.136Z,99.90
2019-05-23T02:19:20.488Z,99.90
2019-05-23T02:22:21.554Z,99.90
2019-05-23T02:25:22.886Z,99.90
2019-05-23T02:28:23.730Z,99.90
2019-05-23T02:31:25.110Z,99.90
2019-05-23T02:34:26.278Z,99.90
2019-05-23T02:37:46.667Z,99.90
2019-05-23T02:44:18.930Z,99.90
2019-05-23T02:47:38.837Z,99.90
2019-05-23T02:50:40.607Z,99.90
2019-05-23T02:53:41.438Z,99.90
2019-05-23T02:56:41.965Z,99.90
2019-05-23T02:59:43.282Z,99.90
2019-05-23T03:02:46.231Z,99.90
2019-05-23T03:05:48.125Z,99.90
2019-05-23T03:08:49.133Z,99.90
2019-05-23T03:11:50.012Z,99.90
2019-05-23T03:14:50.785Z,99.90
2019-05-23T03:17:52.570Z,99.90
2019-05-23T03:20:54.250Z,99.90
2019-05-23T03:23:55.814Z,99.90
2019-05-23T03:26:58.103Z,99.90
2019-05-23T03:29:59.751Z,99.90
2019-05-23T03:33:02.561Z,99.90
2019-05-23T03:36:03.952Z,99.90
2019-05-23T03:39:06.262Z,99.90
2019-05-23T03:42:08.370Z,99.90
2019-05-23T03:45:10.443Z,99.90
2019-05-23T03:48:11.530Z,99.90
2019-05-23T03:51:12.061Z,99.90
2019-05-23T04:03:39.666Z,99.90
2019-05-23T04:07:05.599Z,99.90
2019-05-23T04:29:12.418Z,99.90
2019-05-23T04:48:08.772Z,99.90
2019-05-23T04:51:09.986Z,99.90
2019-05-23T04:54:11.697Z,99.90
2019-05-23T04:57:14.409Z,99.90
2019-05-23T05:00:16.755Z,99.90
2019-05-23T05:03:18.643Z,99.90
2019-05-23T05:06:20.305Z,99.90
2019-05-23T05:09:27.746Z,99.90
2019-05-23T05:12:28.973Z,99.90
2019-05-23T05:15:30.038Z,99.90
2019-05-23T05:18:30.744Z,99.90
2019-05-23T05:21:31.595Z,99.90
2019-05-23T05:24:31.937Z,99.90
2019-05-23T05:27:32.798Z,99.90
2019-05-23T05:30:34.008Z,99.90
2019-05-23T05:33:34.438Z,99.90
2019-05-23T05:36:35.254Z,99.90
2019-05-23T05:39:36.684Z,99.90
2019-05-23T05:42:37.689Z,99.90
2019-05-23T05:45:27.437Z,99.90
2019-05-23T05:48:29.195Z,99.90
2019-05-23T05:51:30.371Z,99.90
2019-05-23T05:54:31.544Z,99.90
2019-05-23T05:57:32.650Z,99.90
2019-05-23T06:00:40.809Z,99.90
2019-05-23T06:07:37.019Z,99.90
2019-05-23T06:14:00.130Z,99.90
2019-05-23T06:20:07.397Z,99.90
2019-05-23T06:23:15.872Z,99.90
2019-05-23T06:26:23.905Z,99.90
2019-05-23T06:33:00.662Z,99.90
2019-05-23T06:49:05.647Z,99.90
2019-05-23T06:52:06.001Z,99.90
2019-05-23T06:55:06.920Z,99.90
2019-05-23T06:58:07.649Z,99.90
2019-05-23T07:01:08.378Z,99.90
2019-05-23T07:04:09.239Z,99.90
2019-05-23T07:07:10.522Z,99.90
2019-05-23T07:10:11.105Z,99.90
2019-05-23T07:13:11.698Z,99.90
2019-05-23T07:16:12.429Z,99.90
2019-05-23T07:19:13.380Z,99.90
2019-05-23T07:22:13.942Z,99.90
2019-05-23T07:25:15.402Z,99.90
2019-05-23T07:28:16.523Z,99.90
2019-05-23T07:31:17.342Z,99.90
2019-05-23T07:34:18.299Z,99.90
2019-05-23T07:37:18.717Z,99.90
2019-05-23T07:40:19.427Z,99.90
2019-05-23T07:43:20.479Z,99.90
2019-05-23T07:46:21.113Z,99.90
2019-05-23T07:49:22.377Z,99.90
2019-05-23T07:52:23.272Z,99.90
2019-05-23T07:58:50.840Z,99.90
2019-05-23T08:05:06.386Z,99.90
2019-05-23T08:08:07.762Z,99.90
2019-05-23T08:11:08.827Z,99.90
2019-05-23T08:14:11.994Z,99.90
2019-05-23T08:17:12.106Z,99.90
2019-05-23T08:20:12.754Z,99.90
2019-05-23T08:23:13.774Z,99.90
2019-05-23T08:26:15.794Z,99.90
2019-05-23T08:29:26.417Z,99.90
2019-05-23T08:32:19.528Z,99.90
2019-05-23T08:35:20.006Z,99.90
2019-05-23T08:38:21.314Z,99.90
2019-05-23T08:41:21.713Z,99.90
2019-05-23T08:44:22.854Z,99.90
2019-05-23T08:47:24.237Z,99.90
2019-05-23T08:50:24.945Z,99.90
2019-05-23T08:53:26.010Z,99.90
2019-05-23T08:56:27.169Z,99.90
2019-05-23T08:59:27.757Z,99.90
2019-05-23T09:02:28.986Z,99.90
2019-05-23T09:05:32.137Z,99.90
2019-05-23T09:08:34.643Z,99.90
2019-05-23T09:11:35.484Z,99.90
2019-05-23T09:14:36.150Z,99.90
2019-05-23T09:17:51.628Z,99.90
2019-05-23T09:20:39.890Z,99.90
2019-05-23T09:23:40.663Z,99.90
2019-05-23T09:26:41.425Z,99.90
2019-05-23T09:29:42.153Z,99.90
2019-05-23T09:32:42.903Z,99.90
2019-05-23T09:35:43.764Z,99.90
2019-05-23T09:38:44.314Z,99.90
2019-05-23T09:41:45.245Z,99.90
2019-05-23T09:44:46.179Z,97.80
2019-05-23T09:47:51.067Z,98.60
2019-05-23T09:50:49.958Z,94.40
2019-05-23T09:53:50.522Z,93.80
2019-05-23T09:56:51.516Z,92.70
2019-05-23T09:59:50.737Z,94.90
2019-05-23T10:06:14.201Z,96.50
2019-05-23T10:09:22.229Z,96.90
2019-05-23T10:12:30.245Z,96.60
2019-05-23T10:15:57.377Z,96.00
2019-05-23T10:19:05.631Z,95.00
2019-05-23T10:25:42.473Z,97.40
2019-05-23T10:28:50.506Z,96.90
2019-05-23T10:31:58.589Z,96.70
2019-05-23T10:38:22.258Z,97.90
2019-05-23T10:41:30.367Z,97.30
2019-05-23T10:44:38.461Z,96.80
2019-05-23T10:47:39.288Z,94.90
2019-05-23T10:50:44.700Z,96.50
2019-05-23T10:53:43.080Z,96.60
2019-05-23T10:56:44.111Z,95.70
2019-05-23T10:59:45.069Z,93.20
2019-05-23T11:02:46.138Z,96.20
2019-05-23T11:05:47.305Z,95.00
2019-05-23T11:08:46.479Z,95.10
2019-05-23T11:15:10.436Z,94.80
2019-05-23T11:18:18.609Z,92.20
2019-05-23T11:21:26.777Z,92.40
2019-05-23T11:24:34.878Z,91.90
2019-05-23T11:27:42.889Z,90.20
2019-05-23T11:31:10.010Z,90.50
2019-05-23T11:40:15.442Z,92.60
2019-05-23T11:43:23.530Z,91.50
2019-05-23T11:46:50.945Z,91.20
2019-05-23T11:49:50.148Z,85.90
2019-05-23T11:52:58.280Z,88.80
2019-05-23T11:56:06.527Z,85.40
2019-05-23T11:59:14.795Z,85.30
2019-05-23T12:05:42.429Z,85.60
2019-05-23T12:08:50.535Z,82.80
2019-05-23T12:11:59.120Z,86.00
2019-05-23T12:15:28.046Z,79.10
2019-05-23T12:18:36.130Z,78.80
2019-05-23T12:21:44.243Z,90.00
2019-05-23T12:24:52.336Z,85.60
2019-05-23T12:28:00.492Z,83.70
2019-05-23T12:31:08.775Z,83.90
2019-05-23T12:37:44.049Z,81.90
2019-05-23T12:40:52.147Z,82.30
2019-05-23T12:44:00.171Z,81.30
2019-05-23T12:50:06.811Z,85.30
2019-05-23T12:53:09.325Z,78.60
2019-05-23T12:56:10.224Z,79.40
2019-05-23T12:59:10.881Z,80.10
2019-05-23T13:02:16.873Z,80.30
2019-05-23T13:05:18.103Z,78.00
2019-05-23T13:08:19.345Z,75.90
2019-05-23T13:11:19.804Z,77.50
2019-05-23T13:14:20.900Z,81.00
2019-05-23T13:17:21.551Z,72.70
2019-05-23T13:20:22.501Z,76.80
2019-05-23T13:23:23.790Z,77.70
2019-05-23T13:26:25.068Z,74.10
2019-05-23T13:29:26.394Z,74.60
2019-05-23T13:32:27.941Z,76.40
2019-05-23T13:35:28.755Z,76.40
2019-05-23T13:38:29.862Z,74.20
2019-05-23T13:41:30.549Z,72.40
2019-05-23T13:44:35.220Z,73.30
2019-05-23T13:47:33.747Z,72.60
2019-05-23T13:50:35.175Z,72.10
2019-05-23T13:53:36.314Z,70.30
2019-05-23T13:56:37.488Z,69.50
2019-05-23T13:59:39.399Z,68.20
2019-05-23T14:02:40.410Z,67.90
2019-05-23T14:05:41.205Z,70.30
2019-05-23T14:08:41.728Z,71.70
2019-05-23T14:11:42.254Z,75.10
2019-05-23T14:14:43.093Z,73.70
2019-05-23T14:17:44.062Z,72.10
2019-05-23T14:24:27.959Z,71.10
2019-05-23T14:27:55.157Z,69.40
2019-05-23T14:31:22.313Z,70.50
2019-05-23T14:47:33.517Z,72.30
2019-05-23T14:50:53.493Z,73.10
2019-05-23T14:54:13.230Z,68.90
2019-05-23T14:57:14.477Z,69.60
2019-05-23T15:00:15.906Z,70.60
2019-05-23T15:03:16.447Z,69.50
2019-05-23T15:06:17.358Z,68.00
2019-05-23T15:09:21.288Z,67.70
2019-05-23T15:12:21.509Z,70.40
2019-05-23T15:15:22.264Z,69.00
2019-05-23T15:18:22.914Z,68.20
2019-05-23T15:21:23.606Z,68.60
2019-05-23T15:24:24.379Z,70.10
2019-05-23T15:27:25.659Z,68.70
2019-05-23T15:30:26.054Z,68.20
2019-05-23T15:33:26.789Z,68.80
2019-05-23T15:36:27.370Z,66.40
2019-05-23T15:39:29.305Z,71.60
2019-05-23T15:42:30.685Z,69.80
2019-05-23T15:45:32.181Z,70.00
2019-05-23T15:48:32.511Z,69.50
2019-05-23T15:51:38.491Z,71.20
2019-05-23T15:54:45.389Z,69.50
2019-05-23T15:58:05.456Z,71.00
2019-05-23T16:04:22.785Z,69.60
2019-05-23T16:07:23.680Z,69.10
2019-05-23T16:10:24.462Z,68.20
2019-05-23T16:13:25.586Z,68.40
2019-05-23T16:16:27.185Z,68.80
2019-05-23T16:19:28.418Z,66.80
2019-05-23T16:22:29.341Z,68.10
2019-05-23T16:25:30.328Z,70.10
2019-05-23T16:28:31.012Z,69.00
2019-05-23T16:31:31.850Z,69.70
2019-05-23T16:34:33.016Z,70.90
2019-05-23T16:37:33.621Z,71.10
2019-05-23T16:40:34.329Z,69.60
2019-05-23T16:43:35.160Z,69.00
2019-05-23T16:46:35.985Z,66.90
2019-05-23T16:49:36.614Z,69.00
2019-05-23T16:52:38.245Z,68.00
2019-05-23T16:59:13.298Z,70.30
2019-05-23T17:05:57.065Z,66.10
2019-05-23T17:13:12.234Z,69.60
2019-05-23T17:16:39.372Z,69.00
2019-05-23T17:23:42.794Z,68.90
2019-05-23T17:36:24.437Z,69.10
2019-05-23T17:42:47.373Z,66.30
2019-05-23T17:45:55.534Z,66.00
2019-05-23T17:48:56.746Z,66.50
2019-05-23T17:51:57.249Z,69.10
2019-05-23T17:54:58.020Z,69.40
2019-05-23T17:57:58.526Z,70.20
2019-05-23T18:00:59.370Z,72.20
2019-05-23T18:03:59.871Z,72.70
2019-05-23T18:07:00.301Z,73.00
2019-05-23T18:10:00.898Z,77.40
2019-05-23T18:13:00.053Z,77.20
2019-05-23T18:16:08.145Z,75.60
2019-05-23T18:19:16.353Z,78.50
2019-05-23T18:25:53.185Z,84.00
2019-05-23T18:29:01.245Z,81.40
2019-05-23T18:45:11.045Z,82.30
2019-05-23T18:48:19.146Z,82.60
2019-05-23T18:51:20.205Z,84.50
2019-05-23T18:54:21.130Z,83.90
2019-05-23T18:57:22.154Z,86.10
2019-05-23T19:00:23.014Z,85.60
2019-05-23T19:03:24.704Z,87.90
2019-05-23T19:06:26.120Z,85.90
2019-05-23T19:09:28.169Z,88.20
2019-05-23T19:12:28.727Z,90.10
2019-05-23T19:15:30.340Z,88.90
2019-05-23T19:18:32.574Z,88.60
2019-05-23T19:21:33.906Z,88.00
2019-05-23T19:24:35.025Z,86.50
2019-05-23T19:27:36.785Z,87.80
2019-05-23T19:30:37.553Z,89.20
2019-05-23T19:33:37.951Z,90.00
2019-05-23T19:36:39.247Z,90.10
2019-05-23T19:39:40.297Z,91.60
2019-05-23T19:42:41.188Z,90.70
2019-05-23T19:45:42.461Z,92.00
2019-05-23T19:48:44.822Z,92.60
2019-05-23T19:51:45.713Z,92.60
2019-05-23T19:54:46.958Z,93.60
2019-05-23T19:57:47.953Z,94.20
2019-05-23T20:00:50.012Z,94.40
2019-05-23T20:03:50.890Z,94.60
2019-05-23T20:06:52.462Z,95.10
2019-05-23T20:09:53.298Z,95.90
2019-05-23T20:12:54.134Z,96.10
2019-05-23T20:15:54.934Z,96.00
2019-05-23T20:18:55.916Z,97.00
2019-05-23T20:21:56.323Z,97.60
2019-05-23T20:24:57.126Z,98.50
2019-05-23T20:27:57.742Z,99.20
2019-05-23T20:30:58.715Z,99.90
2019-05-23T20:33:59.895Z,99.90
2019-05-23T20:37:00.693Z,99.90
2019-05-23T20:40:01.117Z,99.90
2019-05-23T20:43:02.627Z,99.90
2019-05-23T20:46:03.538Z,99.90
2019-05-23T20:49:04.300Z,99.90
2019-05-23T20:52:05.584Z,99.90
2019-05-23T20:54:54.512Z,99.90
2019-05-23T20:58:02.642Z,99.90
2019-05-23T21:01:29.760Z,99.90
2019-05-23T21:08:05.013Z,99.90
2019-05-23T21:11:13.035Z,99.90
2019-05-23T21:14:21.216Z,99.90
2019-05-23T21:17:29.301Z,99.90
2019-05-23T21:20:37.337Z,99.90
2019-05-23T21:23:45.375Z,99.90
2019-05-23T21:26:53.549Z,99.90
2019-05-23T21:30:01.573Z,99.90
2019-05-23T21:33:09.596Z,99.90
2019-05-23T21:36:17.707Z,99.90
2019-05-23T21:39:25.790Z,99.90
2019-05-23T21:42:47.112Z,99.90
2019-05-23T21:45:43.726Z,99.90
2019-05-23T21:48:51.786Z,99.90
2019-05-23T21:51:59.836Z,99.90
2019-05-23T21:55:07.921Z,99.90
2019-05-23T22:05:09.925Z,99.90
2019-05-23T22:11:33.080Z,99.90
2019-05-23T22:30:05.613Z,99.90
2019-05-23T22:39:42.718Z,99.90
2019-05-23T22:42:50.740Z,99.90
2019-05-23T22:49:20.319Z,99.90
2019-05-23T22:52:21.089Z,99.90
2019-05-23T22:55:21.414Z,99.90
2019-05-23T22:58:22.021Z,99.90
2019-05-23T23:01:24.153Z,99.90
2019-05-23T23:04:25.578Z,99.90
2019-05-23T23:07:26.659Z,99.90
2019-05-23T23:10:26.981Z,99.90
2019-05-23T23:13:38.161Z,99.90
2019-05-23T23:16:30.595Z,99.90
2019-05-23T23:19:31.329Z,99.90
2019-05-23T23:22:32.257Z,99.90
2019-05-23T23:25:33.149Z,99.90
2019-05-23T23:28:34.325Z,99.90
2019-05-23T23:31:35.539Z,99.90
2019-05-23T23:34:36.674Z,99.90
2019-05-23T23:37:37.427Z,99.90
2019-05-23T23:40:38.300Z,99.90
2019-05-23T23:43:39.100Z,99.90
2019-05-23T23:46:58.921Z,99.90
2019-05-23T23:50:18.597Z,99.90
2019-05-23T23:53:38.958Z,99.90
2019-05-23T23:56:58.706Z,99.90
